Terminal Aerodrome Forecast
Issued by NWS

Home | Current Version | Previous Version | Text Only | Print | Product List | Glossary On
Versions: 1 2 3 4 5 6 7 8 9 10 11 12 13 14 15
361
FTUS44 KLZK 232331
TAFHOT
TAF
KHOT 232331Z 2400/2424 35010G20KT P6SM VCTS SCT025 OVC040CB
      TEMPO 2400/2402 2SM TSRA BR OVC025CB
     FM240200 02007KT 6SM TSRA SCT015 OVC025CB
     FM240900 35003KT P6SM OVC100
     FM241400 06010KT P6SM BKN250=

USA.gov is the U.S. government's official web portal to all federal, state and local government web resources and services.